Takamatsu, Japan

6:09 PM JST on October 23, 2014 (GMT +0900)
Takamatsu | Change Station
CLOSE
Current Station
Airport
Location: Takamatsu Airport,
Elevation: 617 ft
Nearby Weather Stations

Elev 617 ft 34.21 °N, 134.02 °E | Updated 9 minutes ago

Mostly Cloudy
Mostly Cloudy
61 °F
Feels Like 61 °F
N
6
Wind Variable Wind from SSE

Today
High -- | Low -- °F
--% Chance of Precip.
Yesterday
High -- | Low -- °F
Precip. -- in
6:15 AM 5:20 PM
Waning Crescent, 0% visible
Pressure 30.06 in
Visibility 6.2 miles
Clouds Few 3000 ft
Mostly Cloudy 4500 ft
Dew Point 50 °F
Humidity 68%
Rainfall 0.00 in
Snow Depth Not available.
UV 0 out of 12
Pollen Not available.
Air Quality Not available.
Flu Activity Not available.
METAR RJOT 230900Z 15005KT 9999 FEW030 BKN045 16/10 Q1018

More Conditions Fewer Conditions

Pressure 30.06 in
Visibility 6.2 miles
Clouds Few 3000 ft
Mostly Cloudy 4500 ft
Dew Point 50 °F
Humidity 68%
Rainfall 0.00 in
Snow Depth Not available.
UV 0 out of 12
Pollen Not available.
Air Quality Not available.
Flu Activity Not available.
METAR RJOT 230900Z 15005KT 9999 FEW030 BKN045 16/10 Q1018

More Conditions Fewer Conditions

10-Day Weather Forecast

Almanac

Astronomy

Oct. 23, 2014 Rise Set
Actual Time 6:15 AM JST 5:20 PM JST
Civil Twilight 5:49 AM JST 5:46 PM JST
Nautical Twilight 5:20 AM JST 6:15 PM JST
Astronomical Twilight 4:51 AM JST 6:44 PM JST
Moon 5:20 AM JST 4:58 PM JST
Length of Visible Light 11h 56m
Length of Day
11h 05m
Tomorrow will be 1m 59s shorter.
Waning Crescent, 0% of the Moon is Illuminated
Today
Waning Crescent
Oct 23
New
Oct 30
First Quarter
Nov 6
Full
Nov 14
Last Quarter

Yesterday's Extremes

Country Highs Country Lows

Community

WunderPhotos

Upload Photos

1,764,198 photos uploaded!

Nearby

Snow Depth

Not available.

Earthquake Activity

City Distance Mag. Time & Date
No recent earthquake activity has been reported nearby.
Minimum magnitude displayed is 2.5.

Coastal Water Temperatures

Place Temperature
No Stations Reporting

Nearby Weather Stations